sensor_id;sensor_type;location;lat;lon;timestamp;P1;durP1;ratioP1;P2;durP2;ratioP2
67665;SDS011;54448;51.472;-2.574;2024-03-07T00:02:14;4.30;;;1.00;;
67665;SDS011;54448;51.472;-2.574;2024-03-07T00:04:42;4.07;;;2.40;;
67665;SDS011;54448;51.472;-2.574;2024-03-07T00:07:08;3.35;;;2.63;;
67665;SDS011;54448;51.472;-2.574;2024-03-07T00:09:34;1.83;;;1.73;;
67665;SDS011;54448;51.472;-2.574;2024-03-07T00:12:00;3.83;;;1.77;;
67665;SDS011;54448;51.472;-2.574;2024-03-07T00:14:26;3.97;;;2.15;;
67665;SDS011;54448;51.472;-2.574;2024-03-07T00:16:57;1.25;;;1.08;;
67665;SDS011;54448;51.472;-2.574;2024-03-07T00:19:24;1.77;;;1.27;;
67665;SDS011;54448;51.472;-2.574;2024-03-07T00:21:55;3.40;;;0.57;;
67665;SDS011;54448;51.472;-2.574;2024-03-07T00:24:24;3.30;;;2.20;;
67665;SDS011;54448;51.472;-2.574;2024-03-07T00:26:52;2.17;;;1.80;;
67665;SDS011;54448;51.472;-2.574;2024-03-07T00:29:18;4.15;;;2.10;;
67665;SDS011;54448;51.472;-2.574;2024-03-07T00:31:44;6.72;;;4.13;;
67665;SDS011;54448;51.472;-2.574;2024-03-07T00:34:12;1.27;;;1.17;;
67665;SDS011;54448;51.472;-2.574;2024-03-07T00:36:39;0.52;;;0.52;;
67665;SDS011;54448;51.472;-2.574;2024-03-07T00:39:05;7.00;;;4.07;;
67665;SDS011;54448;51.472;-2.574;2024-03-07T00:41:33;1.45;;;1.30;;
67665;SDS011;54448;51.472;-2.574;2024-03-07T00:43:59;3.30;;;2.67;;
67665;SDS011;54448;51.472;-2.574;2024-03-07T00:46:24;5.03;;;3.25;;
67665;SDS011;54448;51.472;-2.574;2024-03-07T00:48:49;1.42;;;1.33;;
67665;SDS011;54448;51.472;-2.574;2024-03-07T00:51:15;3.92;;;2.33;;
67665;SDS011;54448;51.472;-2.574;2024-03-07T00:53:40;3.10;;;2.17;;
67665;SDS011;54448;51.472;-2.574;2024-03-07T00:56:06;5.43;;;3.25;;
67665;SDS011;54448;51.472;-2.574;2024-03-07T00:58:31;4.25;;;2.17;;
67665;SDS011;54448;51.472;-2.574;2024-03-07T01:00:57;2.30;;;1.48;;
67665;SDS011;54448;51.472;-2.574;2024-03-07T01:03:22;5.30;;;3.30;;
67665;SDS011;54448;51.472;-2.574;2024-03-07T01:05:49;2.03;;;1.10;;
67665;SDS011;54448;51.472;-2.574;2024-03-07T01:08:14;5.13;;;2.15;;
67665;SDS011;54448;51.472;-2.574;2024-03-07T01:10:40;6.00;;;3.70;;
67665;SDS011;54448;51.472;-2.574;2024-03-07T01:13:06;6.07;;;3.05;;
67665;SDS011;54448;51.472;-2.574;2024-03-07T01:15:33;13.23;;;6.32;;
67665;SDS011;54448;51.472;-2.574;2024-03-07T01:17:59;5.95;;;3.55;;
67665;SDS011;54448;51.472;-2.574;2024-03-07T01:20:24;4.80;;;2.78;;
67665;SDS011;54448;51.472;-2.574;2024-03-07T01:22:51;1.02;;;0.82;;
67665;SDS011;54448;51.472;-2.574;2024-03-07T01:25:17;5.65;;;2.78;;
67665;SDS011;54448;51.472;-2.574;2024-03-07T01:27:43;5.60;;;3.58;;
67665;SDS011;54448;51.472;-2.574;2024-03-07T01:30:09;3.15;;;1.38;;
67665;SDS011;54448;51.472;-2.574;2024-03-07T01:32:35;1.02;;;0.70;;
67665;SDS011;54448;51.472;-2.574;2024-03-07T01:35:01;6.55;;;4.57;;
67665;SDS011;54448;51.472;-2.574;2024-03-07T01:37:26;2.38;;;2.08;;
67665;SDS011;54448;51.472;-2.574;2024-03-07T01:39:52;4.25;;;2.47;;
67665;SDS011;54448;51.472;-2.574;2024-03-07T01:42:18;2.05;;;1.88;;
67665;SDS011;54448;51.472;-2.574;2024-03-07T01:44:43;0.00;;;0.00;;
67665;SDS011;54448;51.472;-2.574;2024-03-07T01:47:09;5.65;;;2.97;;
67665;SDS011;54448;51.472;-2.574;2024-03-07T01:49:35;2.10;;;1.08;;
67665;SDS011;54448;51.472;-2.574;2024-03-07T01:52:01;7.18;;;3.70;;
67665;SDS011;54448;51.472;-2.574;2024-03-07T01:54:27;1.77;;;1.02;;
67665;SDS011;54448;51.472;-2.574;2024-03-07T01:56:53;14.93;;;7.55;;
67665;SDS011;54448;51.472;-2.574;2024-03-07T01:59:20;5.70;;;2.15;;
67665;SDS011;54448;51.472;-2.574;2024-03-07T02:01:45;4.05;;;2.50;;
67665;SDS011;54448;51.472;-2.574;2024-03-07T02:04:12;7.28;;;3.78;;
67665;SDS011;54448;51.472;-2.574;2024-03-07T02:06:39;4.82;;;2.58;;
67665;SDS011;54448;51.472;-2.574;2024-03-07T02:09:04;1.27;;;1.17;;
67665;SDS011;54448;51.472;-2.574;2024-03-07T02:11:31;0.30;;;0.30;;
67665;SDS011;54448;51.472;-2.574;2024-03-07T02:13:56;3.97;;;2.35;;
67665;SDS011;54448;51.472;-2.574;2024-03-07T02:16:22;1.35;;;1.08;;
67665;SDS011;54448;51.472;-2.574;2024-03-07T02:18:48;2.55;;;1.77;;
67665;SDS011;54448;51.472;-2.574;2024-03-07T02:21:13;18.60;;;7.28;;
67665;SDS011;54448;51.472;-2.574;2024-03-07T02:23:39;3.75;;;2.28;;
67665;SDS011;54448;51.472;-2.574;2024-03-07T02:26:06;18.08;;;6.30;;
67665;SDS011;54448;51.472;-2.574;2024-03-07T02:28:31;15.02;;;6.07;;
67665;SDS011;54448;51.472;-2.574;2024-03-07T02:30:59;8.48;;;5.20;;
67665;SDS011;54448;51.472;-2.574;2024-03-07T02:33:25;4.55;;;3.25;;
67665;SDS011;54448;51.472;-2.574;2024-03-07T02:35:50;3.25;;;1.55;;
67665;SDS011;54448;51.472;-2.574;2024-03-07T02:38:16;6.35;;;2.92;;
67665;SDS011;54448;51.472;-2.574;2024-03-07T02:40:42;4.22;;;3.03;;
67665;SDS011;54448;51.472;-2.574;2024-03-07T02:43:08;10.77;;;4.93;;
67665;SDS011;54448;51.472;-2.574;2024-03-07T02:45:33;4.15;;;1.75;;
67665;SDS011;54448;51.472;-2.574;2024-03-07T02:47:59;3.85;;;1.85;;
67665;SDS011;54448;51.472;-2.574;2024-03-07T02:50:24;4.35;;;1.40;;
67665;SDS011;54448;51.472;-2.574;2024-03-07T02:52:50;0.90;;;0.75;;
67665;SDS011;54448;51.472;-2.574;2024-03-07T02:55:17;5.38;;;3.05;;
67665;SDS011;54448;51.472;-2.574;2024-03-07T02:57:44;9.02;;;5.30;;
67665;SDS011;54448;51.472;-2.574;2024-03-07T03:00:10;6.43;;;3.38;;
67665;SDS011;54448;51.472;-2.574;2024-03-07T03:02:46;11.88;;;5.90;;
67665;SDS011;54448;51.472;-2.574;2024-03-07T03:05:12;4.20;;;3.30;;
67665;SDS011;54448;51.472;-2.574;2024-03-07T03:07:39;6.65;;;3.08;;
67665;SDS011;54448;51.472;-2.574;2024-03-07T03:10:05;16.88;;;6.90;;
67665;SDS011;54448;51.472;-2.574;2024-03-07T03:12:34;0.10;;;0.10;;
67665;SDS011;54448;51.472;-2.574;2024-03-07T03:15:03;13.57;;;5.45;;
67665;SDS011;54448;51.472;-2.574;2024-03-07T03:17:30;0.00;;;0.00;;
67665;SDS011;54448;51.472;-2.574;2024-03-07T03:19:55;13.88;;;5.18;;
67665;SDS011;54448;51.472;-2.574;2024-03-07T03:22:21;11.75;;;6.22;;
67665;SDS011;54448;51.472;-2.574;2024-03-07T03:24:46;18.38;;;6.38;;
67665;SDS011;54448;51.472;-2.574;2024-03-07T03:27:12;3.72;;;2.70;;
67665;SDS011;54448;51.472;-2.574;2024-03-07T03:29:37;9.15;;;4.32;;
67665;SDS011;54448;51.472;-2.574;2024-03-07T03:32:03;10.40;;;3.80;;
67665;SDS011;54448;51.472;-2.574;2024-03-07T03:34:29;16.52;;;5.43;;
67665;SDS011;54448;51.472;-2.574;2024-03-07T03:36:54;12.02;;;5.25;;
67665;SDS011;54448;51.472;-2.574;2024-03-07T03:39:19;11.88;;;6.15;;
67665;SDS011;54448;51.472;-2.574;2024-03-07T03:41:46;7.35;;;4.07;;
67665;SDS011;54448;51.472;-2.574;2024-03-07T03:44:11;7.15;;;2.10;;
67665;SDS011;54448;51.472;-2.574;2024-03-07T03:46:36;7.00;;;3.13;;
67665;SDS011;54448;51.472;-2.574;2024-03-07T03:49:02;7.60;;;3.05;;
67665;SDS011;54448;51.472;-2.574;2024-03-07T03:51:27;9.18;;;5.07;;
67665;SDS011;54448;51.472;-2.574;2024-03-07T03:53:53;7.07;;;3.45;;
67665;SDS011;54448;51.472;-2.574;2024-03-07T03:56:18;10.48;;;5.80;;
67665;SDS011;54448;51.472;-2.574;2024-03-07T03:58:44;12.60;;;2.35;;
67665;SDS011;54448;51.472;-2.574;2024-03-07T04:01:09;1.70;;;1.55;;
67665;SDS011;54448;51.472;-2.574;2024-03-07T04:03:38;7.22;;;4.55;;
67665;SDS011;54448;51.472;-2.574;2024-03-07T04:06:04;4.95;;;3.70;;
67665;SDS011;54448;51.472;-2.574;2024-03-07T04:08:30;12.23;;;3.58;;
67665;SDS011;54448;51.472;-2.574;2024-03-07T04:10:55;3.97;;;2.50;;
67665;SDS011;54448;51.472;-2.574;2024-03-07T04:13:20;13.35;;;7.07;;
67665;SDS011;54448;51.472;-2.574;2024-03-07T04:15:47;9.93;;;5.47;;
67665;SDS011;54448;51.472;-2.574;2024-03-07T04:18:13;10.48;;;5.50;;
67665;SDS011;54448;51.472;-2.574;2024-03-07T04:20:38;7.13;;;5.05;;
67665;SDS011;54448;51.472;-2.574;2024-03-07T04:23:04;2.67;;;1.98;;
67665;SDS011;54448;51.472;-2.574;2024-03-07T04:25:30;20.45;;;10.07;;
67665;SDS011;54448;51.472;-2.574;2024-03-07T04:27:58;17.63;;;6.72;;
67665;SDS011;54448;51.472;-2.574;2024-03-07T04:30:24;18.40;;;7.82;;
67665;SDS011;54448;51.472;-2.574;2024-03-07T04:32:49;2.38;;;1.65;;
67665;SDS011;54448;51.472;-2.574;2024-03-07T04:35:15;12.65;;;6.55;;
67665;SDS011;54448;51.472;-2.574;2024-03-07T04:37:40;7.85;;;3.72;;
67665;SDS011;54448;51.472;-2.574;2024-03-07T04:40:06;17.90;;;8.68;;
67665;SDS011;54448;51.472;-2.574;2024-03-07T04:42:43;18.60;;;7.30;;
67665;SDS011;54448;51.472;-2.574;2024-03-07T04:45:09;19.90;;;7.20;;
67665;SDS011;54448;51.472;-2.574;2024-03-07T04:47:38;12.07;;;4.75;;
67665;SDS011;54448;51.472;-2.574;2024-03-07T04:50:03;6.13;;;3.17;;
67665;SDS011;54448;51.472;-2.574;2024-03-07T04:52:29;9.55;;;4.82;;
67665;SDS011;54448;51.472;-2.574;2024-03-07T04:54:55;8.48;;;3.83;;
67665;SDS011;54448;51.472;-2.574;2024-03-07T04:57:20;2.50;;;1.40;;
67665;SDS011;54448;51.472;-2.574;2024-03-07T04:59:46;4.40;;;1.88;;
67665;SDS011;54448;51.472;-2.574;2024-03-07T05:02:11;10.68;;;5.18;;
67665;SDS011;54448;51.472;-2.574;2024-03-07T05:04:37;8.27;;;5.03;;
67665;SDS011;54448;51.472;-2.574;2024-03-07T05:07:02;24.45;;;6.55;;
67665;SDS011;54448;51.472;-2.574;2024-03-07T05:09:28;5.75;;;2.55;;
67665;SDS011;54448;51.472;-2.574;2024-03-07T05:11:54;5.00;;;2.78;;
67665;SDS011;54448;51.472;-2.574;2024-03-07T05:14:20;10.63;;;5.03;;
67665;SDS011;54448;51.472;-2.574;2024-03-07T05:16:47;3.10;;;2.55;;
67665;SDS011;54448;51.472;-2.574;2024-03-07T05:19:29;8.55;;;4.40;;
67665;SDS011;54448;51.472;-2.574;2024-03-07T05:21:55;0.30;;;0.30;;
67665;SDS011;54448;51.472;-2.574;2024-03-07T05:24:21;8.10;;;3.67;;
67665;SDS011;54448;51.472;-2.574;2024-03-07T05:26:46;17.13;;;6.90;;
67665;SDS011;54448;51.472;-2.574;2024-03-07T05:29:12;31.45;;;3.72;;
67665;SDS011;54448;51.472;-2.574;2024-03-07T05:31:37;8.38;;;4.03;;
67665;SDS011;54448;51.472;-2.574;2024-03-07T05:34:05;6.13;;;3.15;;
67665;SDS011;54448;51.472;-2.574;2024-03-07T05:36:34;21.45;;;7.93;;
67665;SDS011;54448;51.472;-2.574;2024-03-07T05:39:00;16.48;;;8.35;;
67665;SDS011;54448;51.472;-2.574;2024-03-07T05:41:27;18.10;;;6.68;;
67665;SDS011;54448;51.472;-2.574;2024-03-07T05:43:54;12.02;;;7.00;;
67665;SDS011;54448;51.472;-2.574;2024-03-07T05:46:23;17.00;;;8.18;;
67665;SDS011;54448;51.472;-2.574;2024-03-07T05:48:48;13.02;;;6.65;;
67665;SDS011;54448;51.472;-2.574;2024-03-07T05:51:17;10.45;;;6.25;;
67665;SDS011;54448;51.472;-2.574;2024-03-07T05:53:43;8.75;;;3.90;;
67665;SDS011;54448;51.472;-2.574;2024-03-07T05:56:08;41.15;;;10.57;;
67665;SDS011;54448;51.472;-2.574;2024-03-07T05:58:34;9.48;;;5.30;;
67665;SDS011;54448;51.472;-2.574;2024-03-07T06:00:59;10.48;;;5.38;;
67665;SDS011;54448;51.472;-2.574;2024-03-07T06:03:25;26.30;;;11.23;;
67665;SDS011;54448;51.472;-2.574;2024-03-07T06:05:50;22.73;;;8.30;;
67665;SDS011;54448;51.472;-2.574;2024-03-07T06:08:19;4.13;;;2.63;;
67665;SDS011;54448;51.472;-2.574;2024-03-07T06:10:46;11.18;;;4.50;;
67665;SDS011;54448;51.472;-2.574;2024-03-07T06:13:13;1.98;;;1.83;;
67665;SDS011;54448;51.472;-2.574;2024-03-07T06:15:39;8.32;;;5.50;;
67665;SDS011;54448;51.472;-2.574;2024-03-07T06:18:05;9.63;;;3.83;;
67665;SDS011;54448;51.472;-2.574;2024-03-07T06:20:33;6.70;;;3.08;;
67665;SDS011;54448;51.472;-2.574;2024-03-07T06:23:00;2.28;;;1.23;;
67665;SDS011;54448;51.472;-2.574;2024-03-07T06:25:28;18.52;;;9.32;;
67665;SDS011;54448;51.472;-2.574;2024-03-07T06:28:02;12.20;;;5.80;;
67665;SDS011;54448;51.472;-2.574;2024-03-07T06:30:37;17.92;;;6.85;;
67665;SDS011;54448;51.472;-2.574;2024-03-07T06:33:04;2.03;;;1.88;;
67665;SDS011;54448;51.472;-2.574;2024-03-07T06:35:30;2.60;;;2.25;;
67665;SDS011;54448;51.472;-2.574;2024-03-07T06:37:56;9.93;;;4.40;;
67665;SDS011;54448;51.472;-2.574;2024-03-07T06:40:21;34.35;;;13.65;;
67665;SDS011;54448;51.472;-2.574;2024-03-07T06:42:47;21.73;;;8.13;;
67665;SDS011;54448;51.472;-2.574;2024-03-07T06:45:13;10.82;;;6.50;;
67665;SDS011;54448;51.472;-2.574;2024-03-07T06:47:39;21.98;;;8.43;;
67665;SDS011;54448;51.472;-2.574;2024-03-07T06:50:04;2.88;;;2.00;;
67665;SDS011;54448;51.472;-2.574;2024-03-07T06:52:33;29.73;;;11.80;;
67665;SDS011;54448;51.472;-2.574;2024-03-07T06:54:59;15.38;;;7.57;;
67665;SDS011;54448;51.472;-2.574;2024-03-07T06:57:24;19.23;;;9.50;;
67665;SDS011;54448;51.472;-2.574;2024-03-07T06:59:50;2.22;;;1.92;;
67665;SDS011;54448;51.472;-2.574;2024-03-07T07:02:15;6.43;;;5.78;;
67665;SDS011;54448;51.472;-2.574;2024-03-07T07:04:41;15.70;;;6.55;;
67665;SDS011;54448;51.472;-2.574;2024-03-07T07:07:10;11.30;;;5.70;;
67665;SDS011;54448;51.472;-2.574;2024-03-07T07:09:38;2.25;;;1.92;;
67665;SDS011;54448;51.472;-2.574;2024-03-07T07:12:03;4.75;;;4.00;;
67665;SDS011;54448;51.472;-2.574;2024-03-07T07:14:29;20.38;;;8.15;;
67665;SDS011;54448;51.472;-2.574;2024-03-07T07:16:54;8.38;;;2.03;;
67665;SDS011;54448;51.472;-2.574;2024-03-07T07:19:21;6.38;;;2.00;;
67665;SDS011;54448;51.472;-2.574;2024-03-07T07:21:47;4.55;;;3.28;;
67665;SDS011;54448;51.472;-2.574;2024-03-07T07:24:14;8.98;;;3.53;;
67665;SDS011;54448;51.472;-2.574;2024-03-07T07:26:40;4.30;;;3.20;;
67665;SDS011;54448;51.472;-2.574;2024-03-07T07:29:05;24.70;;;9.77;;
67665;SDS011;54448;51.472;-2.574;2024-03-07T07:31:31;11.88;;;4.55;;
67665;SDS011;54448;51.472;-2.574;2024-03-07T07:33:57;13.27;;;5.97;;
67665;SDS011;54448;51.472;-2.574;2024-03-07T07:36:23;0.75;;;0.65;;
67665;SDS011;54448;51.472;-2.574;2024-03-07T07:38:48;2.47;;;2.22;;
67665;SDS011;54448;51.472;-2.574;2024-03-07T07:41:14;0.82;;;0.82;;
67665;SDS011;54448;51.472;-2.574;2024-03-07T07:43:40;20.50;;;9.18;;
67665;SDS011;54448;51.472;-2.574;2024-03-07T07:46:05;0.30;;;0.30;;
67665;SDS011;54448;51.472;-2.574;2024-03-07T07:48:31;3.17;;;2.42;;
67665;SDS011;54448;51.472;-2.574;2024-03-07T07:50:57;0.55;;;0.55;;
67665;SDS011;54448;51.472;-2.574;2024-03-07T07:53:23;29.70;;;7.63;;
67665;SDS011;54448;51.472;-2.574;2024-03-07T07:55:48;40.75;;;10.57;;
67665;SDS011;54448;51.472;-2.574;2024-03-07T07:58:14;5.95;;;3.03;;
67665;SDS011;54448;51.472;-2.574;2024-03-07T08:00:39;15.70;;;4.85;;
67665;SDS011;54448;51.472;-2.574;2024-03-07T08:03:08;29.40;;;10.98;;
67665;SDS011;54448;51.472;-2.574;2024-03-07T08:05:36;27.15;;;9.95;;
67665;SDS011;54448;51.472;-2.574;2024-03-07T08:08:03;37.03;;;13.80;;
67665;SDS011;54448;51.472;-2.574;2024-03-07T08:10:32;34.78;;;9.65;;
67665;SDS011;54448;51.472;-2.574;2024-03-07T08:12:59;39.88;;;11.65;;
67665;SDS011;54448;51.472;-2.574;2024-03-07T08:15:25;18.10;;;5.80;;
67665;SDS011;54448;51.472;-2.574;2024-03-07T08:17:53;28.15;;;9.52;;
67665;SDS011;54448;51.472;-2.574;2024-03-07T08:20:20;18.38;;;8.65;;
67665;SDS011;54448;51.472;-2.574;2024-03-07T08:22:46;24.58;;;8.25;;
67665;SDS011;54448;51.472;-2.574;2024-03-07T08:25:14;49.63;;;13.73;;
67665;SDS011;54448;51.472;-2.574;2024-03-07T08:27:41;22.75;;;9.40;;
67665;SDS011;54448;51.472;-2.574;2024-03-07T08:30:08;24.83;;;7.85;;
67665;SDS011;54448;51.472;-2.574;2024-03-07T08:32:44;34.40;;;10.10;;
67665;SDS011;54448;51.472;-2.574;2024-03-07T08:35:11;7.88;;;3.60;;
67665;SDS011;54448;51.472;-2.574;2024-03-07T08:37:39;42.17;;;11.68;;
67665;SDS011;54448;51.472;-2.574;2024-03-07T08:40:06;35.20;;;9.23;;
67665;SDS011;54448;51.472;-2.574;2024-03-07T08:42:35;26.88;;;12.15;;
67665;SDS011;54448;51.472;-2.574;2024-03-07T08:45:07;51.55;;;16.33;;
67665;SDS011;54448;51.472;-2.574;2024-03-07T08:47:36;53.63;;;14.45;;
67665;SDS011;54448;51.472;-2.574;2024-03-07T08:50:02;29.60;;;8.15;;
67665;SDS011;54448;51.472;-2.574;2024-03-07T08:52:31;41.03;;;14.32;;
67665;SDS011;54448;51.472;-2.574;2024-03-07T08:54:58;39.38;;;13.32;;
67665;SDS011;54448;51.472;-2.574;2024-03-07T08:57:23;29.88;;;11.10;;
67665;SDS011;54448;51.472;-2.574;2024-03-07T08:59:49;10.95;;;6.93;;
67665;SDS011;54448;51.472;-2.574;2024-03-07T09:02:15;55.67;;;16.33;;
67665;SDS011;54448;51.472;-2.574;2024-03-07T09:04:40;39.05;;;12.48;;
67665;SDS011;54448;51.472;-2.574;2024-03-07T09:07:06;33.83;;;14.07;;
67665;SDS011;54448;51.472;-2.574;2024-03-07T09:09:32;0.93;;;0.88;;
67665;SDS011;54448;51.472;-2.574;2024-03-07T09:11:58;19.48;;;8.57;;
67665;SDS011;54448;51.472;-2.574;2024-03-07T09:14:26;14.38;;;5.53;;
67665;SDS011;54448;51.472;-2.574;2024-03-07T09:16:51;41.55;;;12.65;;
67665;SDS011;54448;51.472;-2.574;2024-03-07T09:19:17;51.75;;;12.35;;
67665;SDS011;54448;51.472;-2.574;2024-03-07T09:21:48;14.32;;;4.32;;
67665;SDS011;54448;51.472;-2.574;2024-03-07T09:24:15;18.02;;;6.75;;
67665;SDS011;54448;51.472;-2.574;2024-03-07T09:26:41;18.00;;;6.15;;
67665;SDS011;54448;51.472;-2.574;2024-03-07T09:29:06;26.25;;;8.88;;
67665;SDS011;54448;51.472;-2.574;2024-03-07T09:31:32;47.88;;;14.07;;
67665;SDS011;54448;51.472;-2.574;2024-03-07T09:33:58;24.17;;;8.13;;
67665;SDS011;54448;51.472;-2.574;2024-03-07T09:36:24;37.90;;;11.13;;
67665;SDS011;54448;51.472;-2.574;2024-03-07T09:38:49;37.35;;;11.73;;
67665;SDS011;54448;51.472;-2.574;2024-03-07T09:41:15;30.35;;;9.82;;
67665;SDS011;54448;51.472;-2.574;2024-03-07T09:43:43;18.27;;;5.57;;
67665;SDS011;54448;51.472;-2.574;2024-03-07T09:46:11;30.85;;;10.70;;
67665;SDS011;54448;51.472;-2.574;2024-03-07T09:48:37;31.90;;;11.55;;
67665;SDS011;54448;51.472;-2.574;2024-03-07T09:51:02;31.20;;;9.05;;
67665;SDS011;54448;51.472;-2.574;2024-03-07T09:53:30;27.65;;;9.95;;
67665;SDS011;54448;51.472;-2.574;2024-03-07T09:55:57;35.28;;;11.52;;
67665;SDS011;54448;51.472;-2.574;2024-03-07T09:58:22;20.13;;;7.68;;
67665;SDS011;54448;51.472;-2.574;2024-03-07T10:00:51;29.83;;;10.23;;
67665;SDS011;54448;51.472;-2.574;2024-03-07T10:03:16;27.10;;;8.20;;
67665;SDS011;54448;51.472;-2.574;2024-03-07T10:05:45;28.95;;;8.80;;
67665;SDS011;54448;51.472;-2.574;2024-03-07T10:08:11;30.55;;;9.63;;
67665;SDS011;54448;51.472;-2.574;2024-03-07T10:10:38;26.77;;;6.30;;
67665;SDS011;54448;51.472;-2.574;2024-03-07T10:13:03;22.35;;;7.38;;
67665;SDS011;54448;51.472;-2.574;2024-03-07T10:15:31;16.90;;;5.50;;
67665;SDS011;54448;51.472;-2.574;2024-03-07T10:17:58;10.52;;;5.30;;
67665;SDS011;54448;51.472;-2.574;2024-03-07T10:20:25;6.45;;;4.30;;
67665;SDS011;54448;51.472;-2.574;2024-03-07T10:22:50;29.33;;;9.77;;
67665;SDS011;54448;51.472;-2.574;2024-03-07T10:25:20;36.22;;;11.00;;
67665;SDS011;54448;51.472;-2.574;2024-03-07T10:27:52;28.42;;;9.20;;
67665;SDS011;54448;51.472;-2.574;2024-03-07T10:30:19;16.08;;;5.65;;
67665;SDS011;54448;51.472;-2.574;2024-03-07T10:32:48;31.20;;;9.13;;
67665;SDS011;54448;51.472;-2.574;2024-03-07T10:35:21;35.17;;;10.77;;
67665;SDS011;54448;51.472;-2.574;2024-03-07T10:37:52;38.28;;;10.77;;
67665;SDS011;54448;51.472;-2.574;2024-03-07T10:40:20;17.15;;;6.63;;
67665;SDS011;54448;51.472;-2.574;2024-03-07T10:42:48;13.65;;;6.32;;
67665;SDS011;54448;51.472;-2.574;2024-03-07T10:45:17;18.45;;;6.97;;
67665;SDS011;54448;51.472;-2.574;2024-03-07T10:47:46;17.27;;;5.97;;
67665;SDS011;54448;51.472;-2.574;2024-03-07T10:56:18;39.38;;;12.43;;
67665;SDS011;54448;51.472;-2.574;2024-03-07T10:58:54;37.17;;;10.75;;
67665;SDS011;54448;51.472;-2.574;2024-03-07T11:01:25;44.38;;;14.98;;
67665;SDS011;54448;51.472;-2.574;2024-03-07T11:03:51;42.35;;;13.43;;
67665;SDS011;54448;51.472;-2.574;2024-03-07T11:06:17;34.83;;;11.82;;
67665;SDS011;54448;51.472;-2.574;2024-03-07T11:08:43;28.65;;;11.82;;
67665;SDS011;54448;51.472;-2.574;2024-03-07T11:11:09;38.42;;;12.30;;
67665;SDS011;54448;51.472;-2.574;2024-03-07T11:13:36;53.67;;;15.15;;
67665;SDS011;54448;51.472;-2.574;2024-03-07T11:16:02;37.97;;;12.75;;
67665;SDS011;54448;51.472;-2.574;2024-03-07T11:18:29;37.00;;;13.23;;
67665;SDS011;54448;51.472;-2.574;2024-03-07T11:20:55;29.25;;;9.75;;
67665;SDS011;54448;51.472;-2.574;2024-03-07T11:23:32;48.40;;;14.25;;
67665;SDS011;54448;51.472;-2.574;2024-03-07T11:28:28;36.83;;;14.30;;
67665;SDS011;54448;51.472;-2.574;2024-03-07T11:30:54;31.15;;;11.93;;
67665;SDS011;54448;51.472;-2.574;2024-03-07T11:33:20;52.95;;;16.77;;
67665;SDS011;54448;51.472;-2.574;2024-03-07T11:35:48;48.78;;;16.77;;
67665;SDS011;54448;51.472;-2.574;2024-03-07T11:38:14;31.45;;;11.20;;
67665;SDS011;54448;51.472;-2.574;2024-03-07T11:43:05;27.05;;;8.38;;
67665;SDS011;54448;51.472;-2.574;2024-03-07T11:45:31;24.77;;;7.75;;
67665;SDS011;54448;51.472;-2.574;2024-03-07T11:50:34;53.22;;;16.20;;
67665;SDS011;54448;51.472;-2.574;2024-03-07T11:53:03;54.47;;;18.35;;
67665;SDS011;54448;51.472;-2.574;2024-03-07T11:55:33;16.98;;;6.40;;
67665;SDS011;54448;51.472;-2.574;2024-03-07T11:58:16;23.55;;;7.97;;
67665;SDS011;54448;51.472;-2.574;2024-03-07T12:00:50;17.92;;;7.72;;
67665;SDS011;54448;51.472;-2.574;2024-03-07T12:03:17;17.38;;;8.00;;
67665;SDS011;54448;51.472;-2.574;2024-03-07T12:05:46;33.45;;;13.00;;
67665;SDS011;54448;51.472;-2.574;2024-03-07T12:08:12;31.67;;;11.98;;
67665;SDS011;54448;51.472;-2.574;2024-03-07T12:10:38;29.23;;;10.48;;
67665;SDS011;54448;51.472;-2.574;2024-03-07T12:13:05;26.70;;;10.18;;
67665;SDS011;54448;51.472;-2.574;2024-03-07T12:15:31;31.20;;;10.77;;
67665;SDS011;54448;51.472;-2.574;2024-03-07T12:17:58;27.90;;;10.65;;
67665;SDS011;54448;51.472;-2.574;2024-03-07T12:20:27;38.15;;;11.23;;
67665;SDS011;54448;51.472;-2.574;2024-03-07T12:23:01;52.10;;;15.40;;
67665;SDS011;54448;51.472;-2.574;2024-03-07T12:25:28;22.45;;;8.68;;
67665;SDS011;54448;51.472;-2.574;2024-03-07T12:28:03;24.67;;;9.82;;
67665;SDS011;54448;51.472;-2.574;2024-03-07T12:30:31;34.13;;;10.50;;
67665;SDS011;54448;51.472;-2.574;2024-03-07T12:33:01;19.15;;;7.50;;
67665;SDS011;54448;51.472;-2.574;2024-03-07T12:35:29;30.25;;;11.60;;
67665;SDS011;54448;51.472;-2.574;2024-03-07T12:37:56;25.25;;;9.63;;
67665;SDS011;54448;51.472;-2.574;2024-03-07T12:40:23;30.33;;;10.02;;
67665;SDS011;54448;51.472;-2.574;2024-03-07T12:42:51;37.30;;;12.95;;
67665;SDS011;54448;51.472;-2.574;2024-03-07T12:45:20;35.10;;;12.20;;
67665;SDS011;54448;51.472;-2.574;2024-03-07T12:47:51;36.30;;;12.23;;
67665;SDS011;54448;51.472;-2.574;2024-03-07T12:50:19;41.53;;;15.05;;
67665;SDS011;54448;51.472;-2.574;2024-03-07T12:52:46;29.45;;;10.45;;
67665;SDS011;54448;51.472;-2.574;2024-03-07T12:55:15;13.30;;;5.45;;
67665;SDS011;54448;51.472;-2.574;2024-03-07T12:57:43;27.90;;;10.43;;
67665;SDS011;54448;51.472;-2.574;2024-03-07T13:00:11;21.67;;;8.35;;
67665;SDS011;54448;51.472;-2.574;2024-03-07T13:02:47;24.20;;;8.53;;
67665;SDS011;54448;51.472;-2.574;2024-03-07T13:05:13;29.25;;;11.98;;
67665;SDS011;54448;51.472;-2.574;2024-03-07T13:07:47;18.55;;;6.70;;
67665;SDS011;54448;51.472;-2.574;2024-03-07T13:10:14;34.92;;;12.52;;
67665;SDS011;54448;51.472;-2.574;2024-03-07T13:12:41;27.55;;;11.10;;
67665;SDS011;54448;51.472;-2.574;2024-03-07T13:15:09;41.97;;;15.90;;
67665;SDS011;54448;51.472;-2.574;2024-03-07T13:17:35;27.48;;;10.57;;
67665;SDS011;54448;51.472;-2.574;2024-03-07T13:20:01;30.55;;;9.98;;
67665;SDS011;54448;51.472;-2.574;2024-03-07T13:22:26;34.55;;;12.15;;
67665;SDS011;54448;51.472;-2.574;2024-03-07T13:24:52;33.10;;;11.18;;
67665;SDS011;54448;51.472;-2.574;2024-03-07T13:27:18;19.33;;;8.93;;
67665;SDS011;54448;51.472;-2.574;2024-03-07T13:29:50;55.75;;;18.75;;
67665;SDS011;54448;51.472;-2.574;2024-03-07T13:32:16;27.67;;;11.05;;
67665;SDS011;54448;51.472;-2.574;2024-03-07T13:34:42;65.47;;;22.75;;
67665;SDS011;54448;51.472;-2.574;2024-03-07T13:37:07;76.15;;;28.17;;
67665;SDS011;54448;51.472;-2.574;2024-03-07T13:39:35;61.92;;;23.70;;
67665;SDS011;54448;51.472;-2.574;2024-03-07T13:42:01;46.85;;;17.50;;
67665;SDS011;54448;51.472;-2.574;2024-03-07T13:44:26;51.20;;;17.17;;
67665;SDS011;54448;51.472;-2.574;2024-03-07T13:46:53;48.08;;;17.27;;
67665;SDS011;54448;51.472;-2.574;2024-03-07T13:49:19;61.30;;;19.42;;
67665;SDS011;54448;51.472;-2.574;2024-03-07T13:51:48;62.42;;;21.55;;
67665;SDS011;54448;51.472;-2.574;2024-03-07T13:54:19;49.50;;;19.58;;
67665;SDS011;54448;51.472;-2.574;2024-03-07T13:57:30;57.13;;;20.80;;
67665;SDS011;54448;51.472;-2.574;2024-03-07T14:00:45;63.22;;;23.85;;
67665;SDS011;54448;51.472;-2.574;2024-03-07T14:05:38;51.35;;;19.83;;
67665;SDS011;54448;51.472;-2.574;2024-03-07T14:30:55;38.60;;;15.55;;
67665;SDS011;54448;51.472;-2.574;2024-03-07T14:34:24;51.45;;;19.30;;
67665;SDS011;54448;51.472;-2.574;2024-03-07T14:36:38;65.53;;;22.67;;
67665;SDS011;54448;51.472;-2.574;2024-03-07T14:39:10;40.30;;;14.70;;
67665;SDS011;54448;51.472;-2.574;2024-03-07T14:44:46;65.05;;;23.75;;
67665;SDS011;54448;51.472;-2.574;2024-03-07T14:47:13;75.00;;;27.58;;
67665;SDS011;54448;51.472;-2.574;2024-03-07T14:49:40;71.53;;;27.27;;
67665;SDS011;54448;51.472;-2.574;2024-03-07T14:52:05;49.88;;;17.33;;
67665;SDS011;54448;51.472;-2.574;2024-03-07T14:54:38;72.68;;;28.63;;
67665;SDS011;54448;51.472;-2.574;2024-03-07T14:57:04;60.35;;;21.13;;
67665;SDS011;54448;51.472;-2.574;2024-03-07T14:59:30;60.08;;;21.17;;
67665;SDS011;54448;51.472;-2.574;2024-03-07T15:01:56;50.75;;;20.10;;
67665;SDS011;54448;51.472;-2.574;2024-03-07T15:04:24;51.03;;;17.25;;
67665;SDS011;54448;51.472;-2.574;2024-03-07T15:06:51;57.17;;;19.02;;